Ivesdale, IL (61851)

5:13 PM CST on January 31, 2015 (GMT -0600)
Jones Family | Change Station
CLOSE
Current Station
Personal Weather Station
Location: Monticello, IL
Elevation: 745 ft
Nearby Weather Stations
Active Advisory: Winter Storm Warning Active Notice: Public Information Statement

Elev 745 ft 40.00 °N, 88.58 °W | Updated 13 seconds ago

Rain
Rain
34.2 °F
Feels Like 31 °F
N
4.0
Wind Variable Wind from West
Gusts 7.0 mph

Today
High -- | Low -- °F
--% Chance of Precip.
Yesterday
High -- | Low -- °F
Precip. -- in
7:03 AM 5:11 PM
Waxing Gibbous, 92% visible
Pressure 30.25 in
Visibility 6.0 miles
Clouds Overcast 4000 ft
Windchill 31 °F
Dew Point 31 °F
Humidity 87%
Rainfall 0.00 in
Snow Depth Not available.
UV 0 out of 12
Pollen .10 out of 12
Air Quality Not available.
Flu Activity Not available.
METAR KCMI 312253Z 22005KT 6SM -RA BR OVC040 01/M01 A3022 RMK AO2 RAB2157UPB11E13 SLP241 P0000 T00111011

More Conditions Fewer Conditions

Pressure 30.25 in
Visibility 6.0 miles
Clouds Overcast 4000 ft
Windchill 31 °F
Dew Point 31 °F
Humidity 87%
Rainfall 0.00 in
Snow Depth Not available.
UV 0 out of 12
Pollen .10 out of 12
Air Quality Not available.
Flu Activity Not available.
METAR KCMI 312253Z 22005KT 6SM -RA BR OVC040 01/M01 A3022 RMK AO2 RAB2157UPB11E13 SLP241 P0000 T00111011

More Conditions Fewer Conditions

10-Day Weather Forecast

Almanac

Astronomy

Jan. 31, 2015 Rise Set
Actual Time
Civil Twilight
Nautical Twilight
Astronomical Twilight
Moon
Length of Visible Light
Length of Day
Tomorrow will be .
, % of the Moon is Illuminated

Today's Extremes

State Highs State Lows

Community

WunderPhotos

Upload Photos

1,792,247 photos uploaded!

WunderBlogs® & News

Nearby

Air Quality

  Air Quality AQ Index Pollutant
Not available.

Snow Depth

Station Depth Elevation

Earthquake Activity

City Distance Mag. Time & Date
Minimum magnitude displayed is 2.5.

Coastal Water Temperatures

Place Temperature

Nearby Weather Stations